createdAt,value
2018-12-18T00:01:51.779Z,5.10
2018-12-18T00:04:20.394Z,5.10
2018-12-18T00:06:48.944Z,5.10
2018-12-18T00:09:17.503Z,5.10
2018-12-18T00:11:46.092Z,5.10
2018-12-18T00:14:14.759Z,5.10
2018-12-18T00:16:43.404Z,5.10
2018-12-18T00:19:11.924Z,5.10
2018-12-18T00:21:40.511Z,5.10
2018-12-18T00:24:09.072Z,5.10
2018-12-18T00:26:37.627Z,5.10
2018-12-18T00:29:06.168Z,5.10
2018-12-18T00:31:35.812Z,5.10
2018-12-18T00:34:04.493Z,5.00
2018-12-18T00:36:33.055Z,5.00
2018-12-18T00:39:01.611Z,5.00
2018-12-18T00:41:30.184Z,5.00
2018-12-18T00:43:58.772Z,5.00
2018-12-18T00:46:27.316Z,4.90
2018-12-18T00:48:55.952Z,5.00
2018-12-18T00:51:24.471Z,5.00
2018-12-18T00:53:54.049Z,5.00
2018-12-18T00:56:22.574Z,5.00
2018-12-18T00:58:51.107Z,5.00
2018-12-18T01:01:19.787Z,5.00
2018-12-18T01:03:52.706Z,5.00
2018-12-18T01:06:18.987Z,5.10
2018-12-18T01:08:47.514Z,5.10
2018-12-18T01:11:16.068Z,5.10
2018-12-18T01:13:44.587Z,5.00
2018-12-18T01:16:13.157Z,5.10
2018-12-18T01:18:41.668Z,5.00
2018-12-18T01:21:10.212Z,5.00
2018-12-18T01:23:38.777Z,5.00
2018-12-18T01:26:07.357Z,5.00
2018-12-18T01:28:35.920Z,5.00
2018-12-18T01:31:04.595Z,5.00
2018-12-18T01:33:33.115Z,5.00
2018-12-18T01:36:01.857Z,5.00
2018-12-18T01:38:30.412Z,4.90
2018-12-18T01:40:58.923Z,4.90
2018-12-18T01:43:27.538Z,5.00
2018-12-18T01:45:56.062Z,4.90
2018-12-18T01:48:24.621Z,4.80
2018-12-18T01:50:53.165Z,4.80
2018-12-18T01:53:21.736Z,4.80
2018-12-18T01:55:50.268Z,4.70
2018-12-18T01:58:18.813Z,4.70
2018-12-18T02:00:47.357Z,4.80
2018-12-18T02:03:15.923Z,4.80
2018-12-18T02:05:44.480Z,4.70
2018-12-18T02:08:13.024Z,4.70
2018-12-18T02:10:41.591Z,4.60
2018-12-18T02:13:10.112Z,4.50
2018-12-18T02:15:38.685Z,4.50
2018-12-18T02:18:07.232Z,4.40
2018-12-18T02:20:35.809Z,4.30
2018-12-18T02:23:04.339Z,4.30
2018-12-18T02:25:32.875Z,4.30
2018-12-18T02:28:01.411Z,4.20
2018-12-18T02:30:29.943Z,4.20
2018-12-18T02:32:58.515Z,4.20
2018-12-18T02:35:27.069Z,4.10
2018-12-18T02:37:55.623Z,4.10
2018-12-18T02:40:24.159Z,4.10
2018-12-18T02:42:52.724Z,4.10
2018-12-18T02:45:21.281Z,4.10
2018-12-18T02:47:49.814Z,4.00
2018-12-18T02:50:18.359Z,4.00
2018-12-18T02:52:46.892Z,4.00
2018-12-18T02:55:15.773Z,4.00
2018-12-18T02:57:44.385Z,3.90
2018-12-18T03:00:13.409Z,3.90
2018-12-18T03:02:42.032Z,3.90
2018-12-18T03:05:10.617Z,3.90
2018-12-18T03:07:39.152Z,3.90
2018-12-18T03:10:07.977Z,3.90
2018-12-18T03:12:36.504Z,3.80
2018-12-18T03:15:05.305Z,3.80
2018-12-18T03:17:34.025Z,3.70
2018-12-18T03:20:02.606Z,3.70
2018-12-18T03:22:31.153Z,3.80
2018-12-18T03:24:59.704Z,3.80
2018-12-18T03:27:28.289Z,3.70
2018-12-18T03:29:56.816Z,3.70
2018-12-18T03:32:30.317Z,3.60
2018-12-18T03:34:58.977Z,3.60
2018-12-18T03:37:27.523Z,3.60
2018-12-18T03:39:56.053Z,3.60
2018-12-18T03:42:24.649Z,3.60
2018-12-18T03:44:53.184Z,3.60
2018-12-18T03:47:21.744Z,3.50
2018-12-18T03:49:50.275Z,3.60
2018-12-18T03:52:18.843Z,3.50
2018-12-18T03:54:47.375Z,3.50
2018-12-18T03:57:15.945Z,3.50
2018-12-18T03:59:44.496Z,3.50
2018-12-18T04:02:13.118Z,3.60
2018-12-18T04:04:41.665Z,3.60
2018-12-18T04:07:10.203Z,3.50
2018-12-18T04:09:38.843Z,3.60
2018-12-18T04:12:11.597Z,3.50
2018-12-18T04:14:40.245Z,3.40
2018-12-18T04:17:08.764Z,3.40
2018-12-18T04:19:37.348Z,3.40
2018-12-18T04:22:05.893Z,3.40
2018-12-18T04:24:34.441Z,3.40
2018-12-18T04:27:02.979Z,3.40
2018-12-18T04:29:31.521Z,3.40
2018-12-18T04:32:00.048Z,3.40
2018-12-18T04:34:28.630Z,3.30
2018-12-18T04:36:57.152Z,3.30
2018-12-18T04:39:25.842Z,3.40
2018-12-18T04:41:54.375Z,3.40
2018-12-18T04:44:22.922Z,3.40
2018-12-18T04:46:51.484Z,3.40
2018-12-18T04:49:20.009Z,3.50
2018-12-18T04:51:48.552Z,3.50
2018-12-18T04:54:17.372Z,3.50
2018-12-18T04:56:45.913Z,3.40
2018-12-18T04:59:14.443Z,3.40
2018-12-18T05:01:43.000Z,3.40
2018-12-18T05:04:11.636Z,3.40
2018-12-18T05:06:40.244Z,3.30
2018-12-18T05:09:09.950Z,3.30
2018-12-18T05:11:38.668Z,3.30
2018-12-18T05:14:07.302Z,3.30
2018-12-18T05:16:35.973Z,3.30
2018-12-18T05:19:04.614Z,3.30
2018-12-18T05:21:33.260Z,3.30
2018-12-18T05:24:01.826Z,3.20
2018-12-18T05:26:31.520Z,3.20
2018-12-18T05:29:00.196Z,3.20
2018-12-18T05:31:28.781Z,3.20
2018-12-18T05:33:57.353Z,3.20
2018-12-18T05:36:26.322Z,3.20
2018-12-18T05:38:55.000Z,3.20
2018-12-18T05:41:23.569Z,3.20
2018-12-18T05:43:52.127Z,3.20
2018-12-18T05:46:20.656Z,3.10
2018-12-18T05:48:49.321Z,3.10
2018-12-18T05:51:17.843Z,3.10
2018-12-18T05:53:46.376Z,3.10
2018-12-18T05:56:14.875Z,3.10
2018-12-18T05:58:43.424Z,3.00
2018-12-18T06:01:12.023Z,3.00
2018-12-18T06:03:40.660Z,3.10
2018-12-18T06:06:09.284Z,3.10
2018-12-18T06:08:37.848Z,3.10
2018-12-18T06:11:06.383Z,3.10
2018-12-18T06:13:35.031Z,3.10
2018-12-18T06:16:03.619Z,3.10
2018-12-18T06:18:32.159Z,3.10
2018-12-18T06:21:02.716Z,3.20
2018-12-18T06:23:31.531Z,3.20
2018-12-18T06:26:00.077Z,3.20
2018-12-18T06:28:28.612Z,3.20
2018-12-18T06:30:57.279Z,3.30
2018-12-18T06:33:25.868Z,3.20
2018-12-18T06:35:54.581Z,3.20
2018-12-18T06:38:23.860Z,3.30
2018-12-18T06:40:52.440Z,3.30
2018-12-18T06:43:20.988Z,3.30
2018-12-18T06:45:49.535Z,3.30
2018-12-18T06:48:18.190Z,3.30
2018-12-18T06:50:46.730Z,3.30
2018-12-18T06:53:15.280Z,3.30
2018-12-18T06:55:43.817Z,3.40
2018-12-18T06:58:12.422Z,3.30
2018-12-18T07:00:40.979Z,3.40
2018-12-18T07:03:09.539Z,3.40
2018-12-18T07:05:38.076Z,3.40
2018-12-18T07:08:06.619Z,3.30
2018-12-18T07:10:35.184Z,3.30
2018-12-18T07:13:03.881Z,3.30
2018-12-18T07:15:33.123Z,3.30
2018-12-18T07:18:01.666Z,3.30
2018-12-18T07:20:30.191Z,3.30
2018-12-18T07:22:58.743Z,3.30
2018-12-18T07:25:27.355Z,3.30
2018-12-18T07:27:55.914Z,3.40
2018-12-18T07:30:24.524Z,3.40
2018-12-18T07:32:54.044Z,3.40
2018-12-18T07:35:23.366Z,3.40
2018-12-18T07:37:52.275Z,3.40
2018-12-18T07:40:20.848Z,3.40
2018-12-18T07:42:49.391Z,3.50
2018-12-18T07:45:17.948Z,3.60
2018-12-18T07:47:46.531Z,3.60
2018-12-18T07:50:15.139Z,3.60
2018-12-18T07:52:43.665Z,3.60
2018-12-18T07:55:12.296Z,3.60
2018-12-18T07:57:40.880Z,3.70
2018-12-18T08:00:09.782Z,3.70
2018-12-18T08:02:38.316Z,3.80
2018-12-18T08:05:07.055Z,3.80
2018-12-18T08:07:35.579Z,3.90
2018-12-18T08:10:04.650Z,3.90
2018-12-18T08:12:34.055Z,3.90
2018-12-18T08:15:02.599Z,3.90
2018-12-18T08:17:31.157Z,4.00
2018-12-18T08:19:59.701Z,4.00
2018-12-18T08:22:28.355Z,4.10
2018-12-18T08:24:56.908Z,4.20
2018-12-18T08:27:25.501Z,4.30
2018-12-18T08:29:54.045Z,4.40
2018-12-18T08:32:22.569Z,4.60
2018-12-18T08:34:51.087Z,4.70
2018-12-18T08:37:19.631Z,4.80
2018-12-18T08:39:48.141Z,4.80
2018-12-18T08:42:16.706Z,5.00
2018-12-18T08:44:45.248Z,5.10
2018-12-18T08:47:14.476Z,5.30
2018-12-18T08:49:43.027Z,5.40
2018-12-18T08:52:11.650Z,5.50
2018-12-18T08:54:40.366Z,5.50
2018-12-18T08:57:08.932Z,5.70
2018-12-18T08:59:37.579Z,5.80
2018-12-18T09:02:06.188Z,6.00
2018-12-18T09:04:34.747Z,6.10
2018-12-18T09:07:03.284Z,6.20
2018-12-18T09:09:31.848Z,6.30
2018-12-18T09:12:00.636Z,6.50
2018-12-18T09:14:29.207Z,6.60
2018-12-18T09:17:03.455Z,6.90
2018-12-18T09:19:32.128Z,7.00
2018-12-18T09:22:01.013Z,7.00
2018-12-18T09:24:29.569Z,7.10
2018-12-18T09:26:58.177Z,7.10
2018-12-18T09:29:26.716Z,7.30
2018-12-18T09:31:55.267Z,7.30
2018-12-18T09:34:23.812Z,7.50
2018-12-18T09:36:52.348Z,7.60
2018-12-18T09:39:25.101Z,7.80
2018-12-18T09:41:57.828Z,7.70
2018-12-18T09:44:28.436Z,7.70
2018-12-18T09:46:56.973Z,7.80
2018-12-18T09:49:25.516Z,7.90
2018-12-18T09:51:54.096Z,8.00
2018-12-18T09:54:22.687Z,7.90
2018-12-18T09:56:51.766Z,7.90
2018-12-18T09:59:20.316Z,8.00
2018-12-18T10:01:48.881Z,7.90
2018-12-18T10:04:17.459Z,8.20
2018-12-18T10:06:46.065Z,8.30
2018-12-18T10:09:14.640Z,8.50
2018-12-18T10:11:43.186Z,8.60
2018-12-18T10:14:11.783Z,8.60
2018-12-18T10:16:40.284Z,8.70
2018-12-18T10:19:08.864Z,8.80
2018-12-18T10:21:37.411Z,8.90
2018-12-18T10:24:05.973Z,9.00
2018-12-18T10:26:34.530Z,9.00
2018-12-18T10:29:03.104Z,9.00
2018-12-18T10:31:31.679Z,9.00
2018-12-18T10:34:00.234Z,9.10
2018-12-18T10:36:28.776Z,9.10
2018-12-18T10:38:57.340Z,9.10
2018-12-18T10:41:25.915Z,9.20
2018-12-18T10:43:54.473Z,8.90
2018-12-18T10:46:23.125Z,9.10
2018-12-18T10:48:51.752Z,9.20
2018-12-18T10:51:20.405Z,9.20
2018-12-18T10:53:48.978Z,9.20
2018-12-18T10:56:17.522Z,9.00
2018-12-18T10:58:46.076Z,9.00
2018-12-18T11:01:52.619Z,9.10
2018-12-18T11:04:21.165Z,8.90
2018-12-18T11:06:49.752Z,8.90
2018-12-18T11:09:18.271Z,8.90
2018-12-18T11:11:46.850Z,8.90
2018-12-18T11:14:15.360Z,9.00
2018-12-18T11:16:43.927Z,8.80
2018-12-18T11:19:12.494Z,8.60
2018-12-18T11:21:41.037Z,8.50
2018-12-18T11:24:09.668Z,8.60
2018-12-18T11:26:38.207Z,8.60
2018-12-18T11:29:06.833Z,8.60
2018-12-18T11:31:35.378Z,8.60
2018-12-18T11:34:03.952Z,8.80
2018-12-18T11:36:32.484Z,8.80
2018-12-18T11:39:01.033Z,9.00
2018-12-18T11:41:29.622Z,8.90
2018-12-18T11:43:58.168Z,8.90
2018-12-18T11:46:27.119Z,8.60
2018-12-18T11:48:55.697Z,8.60
2018-12-18T11:51:24.283Z,8.60
2018-12-18T11:53:52.933Z,8.60
2018-12-18T11:56:21.457Z,8.60
2018-12-18T11:58:50.024Z,8.40
2018-12-18T12:01:18.584Z,8.30
2018-12-18T12:03:47.141Z,8.20
2018-12-18T12:06:22.870Z,8.30
2018-12-18T12:08:47.940Z,8.40
2018-12-18T12:11:16.509Z,8.50
2018-12-18T12:13:45.020Z,8.60
2018-12-18T12:16:13.619Z,8.60
2018-12-18T12:18:42.179Z,8.70
2018-12-18T12:21:10.752Z,8.80
2018-12-18T12:23:39.291Z,8.70
2018-12-18T12:26:13.202Z,8.70
2018-12-18T12:28:41.782Z,9.00
2018-12-18T12:31:12.511Z,8.80
2018-12-18T12:33:41.260Z,8.90
2018-12-18T12:36:09.828Z,9.00
2018-12-18T12:38:38.373Z,9.20
2018-12-18T12:41:06.954Z,9.30
2018-12-18T12:43:35.480Z,9.40
2018-12-18T12:46:04.053Z,9.30
2018-12-18T12:48:37.912Z,9.20
2018-12-18T12:51:06.550Z,9.40
2018-12-18T12:53:35.097Z,9.60
2018-12-18T12:56:03.806Z,9.60
2018-12-18T12:58:32.353Z,9.70
2018-12-18T13:01:00.926Z,9.60
2018-12-18T13:03:29.494Z,9.40
2018-12-18T13:05:58.040Z,9.40
2018-12-18T13:08:29.504Z,9.20
2018-12-18T13:10:58.065Z,9.00
2018-12-18T13:13:26.612Z,9.00
2018-12-18T13:15:55.289Z,8.90
2018-12-18T13:18:23.913Z,8.80
2018-12-18T13:20:52.468Z,8.60
2018-12-18T13:23:21.039Z,8.60
2018-12-18T13:25:49.622Z,8.40
2018-12-18T13:28:18.182Z,8.50
2018-12-18T13:30:46.804Z,8.40
2018-12-18T13:33:15.333Z,8.10
2018-12-18T13:35:43.872Z,8.20
2018-12-18T13:38:12.444Z,7.90
2018-12-18T13:40:40.999Z,7.80
2018-12-18T13:43:09.565Z,7.60
2018-12-18T13:45:38.089Z,7.50
2018-12-18T13:48:06.649Z,7.40
2018-12-18T13:50:35.244Z,7.40
2018-12-18T13:53:03.830Z,7.30
2018-12-18T13:55:36.642Z,7.30
2018-12-18T13:58:03.028Z,7.10
2018-12-18T14:00:31.561Z,7.00
2018-12-18T14:03:00.113Z,7.00
2018-12-18T14:05:28.692Z,6.90
2018-12-18T14:07:57.244Z,6.80
2018-12-18T14:10:25.931Z,6.90
2018-12-18T14:12:57.674Z,6.90
2018-12-18T14:15:26.429Z,6.80
2018-12-18T14:17:55.025Z,6.80
2018-12-18T14:20:23.671Z,6.70
2018-12-18T14:22:52.243Z,6.60
2018-12-18T14:25:20.814Z,6.40
2018-12-18T14:27:49.414Z,6.40
2018-12-18T14:30:18.076Z,6.30
2018-12-18T14:32:46.921Z,6.10
2018-12-18T14:35:15.713Z,6.00
2018-12-18T14:37:44.267Z,6.00
2018-12-18T14:40:12.843Z,5.90
2018-12-18T14:42:41.361Z,5.80
2018-12-18T14:45:10.023Z,5.80
2018-12-18T14:47:38.536Z,5.70
2018-12-18T14:50:07.856Z,5.60
2018-12-18T14:52:36.791Z,5.50
2018-12-18T14:55:05.536Z,5.50
2018-12-18T14:57:34.096Z,5.50
2018-12-18T15:00:02.680Z,5.40
2018-12-18T15:02:31.467Z,5.40
2018-12-18T15:05:00.004Z,5.40
2018-12-18T15:07:28.764Z,5.40
2018-12-18T15:09:57.425Z,5.30
2018-12-18T15:12:26.110Z,5.20
2018-12-18T15:14:54.843Z,5.10
2018-12-18T15:17:23.531Z,5.20
2018-12-18T15:19:52.276Z,5.10
2018-12-18T15:22:20.850Z,5.10
2018-12-18T15:24:49.377Z,5.10
2018-12-18T15:27:17.942Z,5.00
2018-12-18T15:29:46.507Z,5.10
2018-12-18T15:32:18.023Z,5.00
2018-12-18T15:34:46.617Z,5.00
2018-12-18T15:37:15.220Z,4.90
2018-12-18T15:39:43.780Z,4.80
2018-12-18T15:42:12.307Z,4.90
2018-12-18T15:44:40.861Z,4.90
2018-12-18T15:47:09.440Z,4.80
2018-12-18T15:49:38.004Z,4.80
2018-12-18T15:52:06.628Z,4.80
2018-12-18T15:54:35.199Z,4.80
2018-12-18T15:57:03.749Z,4.80
2018-12-18T15:59:32.317Z,4.80
2018-12-18T16:02:00.847Z,4.80
2018-12-18T16:04:29.426Z,4.80
2018-12-18T16:06:57.980Z,4.80
2018-12-18T16:09:26.532Z,4.80
2018-12-18T16:11:55.169Z,4.80
2018-12-18T16:14:25.606Z,4.80
2018-12-18T16:16:54.166Z,4.80
2018-12-18T16:19:22.988Z,4.80
2018-12-18T16:21:51.856Z,4.80
2018-12-18T16:24:20.391Z,4.80
2018-12-18T16:26:48.955Z,4.80
2018-12-18T16:29:17.670Z,4.80
2018-12-18T16:31:46.444Z,4.90
2018-12-18T16:34:15.064Z,4.90
2018-12-18T16:36:43.695Z,4.90
2018-12-18T16:39:12.248Z,4.90
2018-12-18T16:41:40.781Z,4.90
2018-12-18T16:44:09.389Z,4.80
2018-12-18T16:46:38.849Z,4.90
2018-12-18T16:49:07.450Z,4.90
2018-12-18T16:51:36.396Z,4.90
2018-12-18T16:54:05.316Z,4.90
2018-12-18T16:56:35.413Z,4.80
2018-12-18T16:59:04.207Z,4.80
2018-12-18T17:01:32.742Z,4.80
2018-12-18T17:04:01.394Z,4.90
2018-12-18T17:06:29.946Z,4.80
2018-12-18T17:08:58.833Z,4.80
2018-12-18T17:11:27.412Z,4.80
2018-12-18T17:13:56.029Z,4.80
2018-12-18T17:16:24.586Z,4.70
2018-12-18T17:18:53.178Z,4.80
2018-12-18T17:21:21.764Z,4.80
2018-12-18T17:23:50.440Z,4.80
2018-12-18T17:26:19.059Z,4.80
2018-12-18T17:28:47.612Z,4.70
2018-12-18T17:31:16.196Z,4.70
2018-12-18T17:33:44.776Z,4.70
2018-12-18T17:36:13.347Z,4.70
2018-12-18T17:38:42.031Z,4.70
2018-12-18T17:41:10.564Z,4.70
2018-12-18T17:43:40.199Z,4.70
2018-12-18T17:46:08.878Z,4.70
2018-12-18T17:48:37.472Z,4.60
2018-12-18T17:51:06.002Z,4.60
2018-12-18T17:53:34.555Z,4.60
2018-12-18T17:56:03.113Z,4.60
2018-12-18T17:58:31.749Z,4.60
2018-12-18T18:01:00.344Z,4.60
2018-12-18T18:03:28.908Z,4.60
2018-12-18T18:05:57.521Z,4.60
2018-12-18T18:08:26.093Z,4.60
2018-12-18T18:10:54.639Z,4.50
2018-12-18T18:13:23.280Z,4.50
2018-12-18T18:15:51.898Z,4.60
2018-12-18T18:18:27.289Z,4.60
2018-12-18T18:20:55.875Z,4.60
2018-12-18T18:26:33.341Z,4.60
2018-12-18T18:29:01.924Z,4.60
2018-12-18T18:31:30.458Z,4.60
2018-12-18T18:33:58.995Z,4.60
2018-12-18T18:36:27.532Z,4.70
2018-12-18T18:38:56.073Z,4.60
2018-12-18T18:41:24.612Z,4.60
2018-12-18T18:43:53.195Z,4.60
2018-12-18T18:46:21.738Z,4.70
2018-12-18T18:48:50.285Z,4.70
2018-12-18T18:51:18.800Z,4.70
2018-12-18T18:53:47.420Z,4.70
2018-12-18T18:56:16.174Z,4.70
2018-12-18T18:58:44.860Z,4.70
2018-12-18T19:01:13.425Z,4.70
2018-12-18T19:03:42.013Z,4.70
2018-12-18T19:06:10.556Z,4.80
2018-12-18T19:08:39.138Z,4.80
2018-12-18T19:11:07.710Z,4.80
2018-12-18T19:13:36.357Z,4.90
2018-12-18T19:16:05.249Z,4.80
2018-12-18T19:18:33.859Z,4.90
2018-12-18T19:21:02.425Z,4.80
2018-12-18T19:23:31.117Z,4.80
2018-12-18T19:25:59.672Z,4.80
2018-12-18T19:28:28.191Z,4.80
2018-12-18T19:30:56.752Z,4.90
2018-12-18T19:33:25.328Z,4.80
2018-12-18T19:35:53.888Z,4.90
2018-12-18T19:38:22.412Z,4.90
2018-12-18T19:40:50.985Z,4.90
2018-12-18T19:43:19.496Z,4.80
2018-12-18T19:45:48.142Z,4.90
2018-12-18T19:48:16.809Z,4.80
2018-12-18T19:50:45.361Z,4.80
2018-12-18T19:53:14.018Z,4.90
2018-12-18T19:55:42.556Z,4.90
2018-12-18T19:58:11.068Z,4.90
2018-12-18T20:00:39.637Z,4.80
2018-12-18T20:03:08.164Z,4.80
2018-12-18T20:05:38.342Z,4.80
2018-12-18T20:08:10.209Z,4.90
2018-12-18T20:10:37.704Z,4.90
2018-12-18T20:13:06.339Z,4.90
2018-12-18T20:15:34.995Z,4.90
2018-12-18T20:18:03.784Z,4.90
2018-12-18T20:20:32.416Z,4.90
2018-12-18T20:23:01.006Z,4.90
2018-12-18T20:25:29.596Z,4.90
2018-12-18T20:27:58.168Z,4.90
2018-12-18T20:30:26.712Z,5.00
2018-12-18T20:32:55.256Z,5.00
2018-12-18T20:35:23.800Z,4.90
2018-12-18T20:37:52.360Z,5.00
2018-12-18T20:40:20.937Z,4.90
2018-12-18T20:42:49.483Z,5.00
2018-12-18T20:45:18.036Z,5.00
2018-12-18T20:47:46.597Z,4.90
2018-12-18T20:50:15.260Z,5.00
2018-12-18T20:52:43.905Z,5.00
2018-12-18T20:55:12.609Z,4.90
2018-12-18T20:57:41.179Z,4.90
2018-12-18T21:00:12.040Z,5.00
2018-12-18T21:02:40.965Z,5.00
2018-12-18T21:05:09.736Z,5.00
2018-12-18T21:07:38.271Z,5.00
2018-12-18T21:10:08.277Z,5.00
2018-12-18T21:12:36.836Z,5.00
2018-12-18T21:15:06.290Z,5.00
2018-12-18T21:17:34.815Z,5.00
2018-12-18T21:20:03.504Z,5.00
2018-12-18T21:22:32.026Z,5.00
2018-12-18T21:25:00.568Z,5.10
2018-12-18T21:27:29.060Z,5.10
2018-12-18T21:29:57.569Z,5.10
2018-12-18T21:32:26.081Z,5.00
2018-12-18T21:34:54.625Z,5.00
2018-12-18T21:37:23.151Z,5.00
2018-12-18T21:39:51.683Z,5.10
2018-12-18T21:42:20.205Z,5.10
2018-12-18T21:44:49.072Z,5.10
2018-12-18T21:47:17.584Z,5.10
2018-12-18T21:49:46.335Z,5.20
2018-12-18T21:52:14.998Z,5.20
2018-12-18T21:54:43.553Z,5.20
2018-12-18T21:57:12.085Z,5.20
2018-12-18T21:59:40.613Z,5.20
2018-12-18T22:02:09.106Z,5.30
2018-12-18T22:04:37.688Z,5.20
2018-12-18T22:07:06.240Z,5.30
2018-12-18T22:09:34.759Z,5.20
2018-12-18T22:12:03.276Z,5.20
2018-12-18T22:14:31.819Z,5.20
2018-12-18T22:17:00.319Z,5.20
2018-12-18T22:19:28.839Z,5.20
2018-12-18T22:21:57.389Z,5.30
2018-12-18T22:24:25.935Z,5.30
2018-12-18T22:26:54.501Z,5.30
2018-12-18T22:29:23.056Z,5.30
2018-12-18T22:31:51.580Z,5.30
2018-12-18T22:34:20.109Z,5.30
2018-12-18T22:36:48.662Z,5.30
2018-12-18T22:39:17.216Z,5.30
2018-12-18T22:41:45.775Z,5.40
2018-12-18T22:44:14.319Z,5.50
2018-12-18T22:46:42.856Z,5.50
2018-12-18T22:49:11.401Z,5.50
2018-12-18T22:51:39.968Z,5.50
2018-12-18T22:54:08.512Z,5.50
2018-12-18T22:56:37.192Z,5.50
2018-12-18T22:59:05.740Z,5.40
2018-12-18T23:01:38.381Z,5.40
2018-12-18T23:04:06.988Z,5.40
2018-12-18T23:06:35.546Z,5.30
2018-12-18T23:09:06.096Z,5.30
2018-12-18T23:11:34.664Z,5.30
2018-12-18T23:14:03.195Z,5.40
2018-12-18T23:16:31.758Z,5.40
2018-12-18T23:19:01.029Z,5.40
2018-12-18T23:21:29.588Z,5.40
2018-12-18T23:23:58.116Z,5.50
2018-12-18T23:26:26.760Z,5.50
2018-12-18T23:28:55.288Z,5.50
2018-12-18T23:31:23.829Z,5.50
2018-12-18T23:33:52.392Z,5.40
2018-12-18T23:36:20.920Z,5.40
2018-12-18T23:38:49.481Z,5.50
2018-12-18T23:41:18.007Z,5.50
2018-12-18T23:43:46.600Z,5.50
2018-12-18T23:46:15.139Z,5.40
2018-12-18T23:48:43.705Z,5.50
2018-12-18T23:51:12.227Z,5.50
2018-12-18T23:53:40.788Z,5.50
2018-12-18T23:56:09.346Z,5.50
2018-12-18T23:58:37.893Z,5.50
